Time;durP1;ratioP1;P1;durP2;ratioP2;P2;SDS_P1;SDS_P2;PMS_P1;PMS_P2;Temp;Humidity;BMP_temperature;BMP_pressure;BME280_temperature;BME280_humidity;BME280_pressure;Samples;Min_cycle;Max_cycle;Signal;HPM_P1;HPM_P2
2022/04/06 00:00:22;;;;;;;2.97;2.67;;;;;;;-143.11;100.00;65634.97;5077421;28;20201;-49
2022/04/06 00:02:48;;;;;;;3.57;2.67;;;;;;;-143.11;100.00;65634.97;5077481;28;20193;-46
2022/04/06 00:05:13;;;;;;;4.13;2.67;;;;;;;-143.11;100.00;65634.97;5077588;28;20271;-54
2022/04/06 00:07:40;;;;;;;3.37;3.00;;;;;;;-143.11;100.00;65634.97;5077565;28;20215;-50
2022/04/06 00:10:07;;;;;;;3.83;3.10;;;;;;;-143.11;100.00;65634.97;5077377;28;20189;-54
2022/04/06 00:12:34;;;;;;;3.40;2.90;;;;;;;-143.11;100.00;65634.97;5077152;28;20204;-51
2022/04/06 00:14:59;;;;;;;3.70;3.07;;;;;;;-143.11;100.00;65634.97;5077609;28;20185;-51
2022/04/06 00:17:25;;;;;;;3.47;3.07;;;;;;;-143.11;100.00;65634.97;5077425;28;20199;-52
2022/04/06 00:19:50;;;;;;;3.20;2.90;;;;;;;-143.11;100.00;65634.97;5077306;28;20189;-53
2022/04/06 00:22:16;;;;;;;3.63;3.10;;;;;;;-143.11;100.00;65634.97;5077075;28;20399;-64
2022/04/06 00:24:41;;;;;;;4.10;2.80;;;;;;;-143.11;100.00;65634.97;5077098;28;20204;-50
2022/04/06 00:27:07;;;;;;;3.23;2.70;;;;;;;-143.11;100.00;65634.97;5077222;28;20250;-56
2022/04/06 00:29:32;;;;;;;3.47;3.17;;;;;;;-143.11;100.00;65634.97;5077213;28;20208;-48
2022/04/06 00:31:57;;;;;;;4.57;3.20;;;;;;;-143.11;100.00;65634.97;5077014;28;20208;-49
2022/04/06 00:35:28;;;;;;;4.43;3.50;;;;;;;-143.11;100.00;65634.97;5077119;28;20179;-53
2022/04/06 00:37:08;;;;;;;3.07;2.77;;;;;;;-143.11;100.00;65634.97;5094830;28;20204;-51
2022/04/06 00:39:34;;;;;;;4.47;3.40;;;;;;;-143.11;100.00;65634.97;5077108;28;20188;-47
2022/04/06 00:41:59;;;;;;;3.43;2.93;;;;;;;-143.11;100.00;65634.97;5076968;28;20184;-60
2022/04/06 00:44:27;;;;;;;5.53;3.50;;;;;;;-143.11;100.00;65634.97;5076188;28;20230;-60
2022/04/06 00:46:52;;;;;;;3.80;3.40;;;;;;;-143.11;100.00;65634.97;5076791;28;20206;-60
2022/04/06 00:49:18;;;;;;;5.20;3.30;;;;;;;-143.11;100.00;65634.97;5077044;28;20184;-60
2022/04/06 00:51:46;;;;;;;3.93;3.53;;;;;;;-143.11;100.00;65634.97;5076918;28;20187;-61
2022/04/06 00:54:14;;;;;;;3.57;3.23;;;;;;;-143.11;100.00;65634.97;5076728;28;20211;-59
2022/04/06 00:56:41;;;;;;;4.17;3.40;;;;;;;-143.11;100.00;65634.97;5076868;28;20180;-59
2022/04/06 00:59:07;;;;;;;3.77;3.37;;;;;;;-143.11;100.00;65634.97;5076885;28;20279;-65
2022/04/06 01:01:33;;;;;;;4.37;3.40;;;;;;;-143.11;100.00;65634.97;5076659;28;20180;-60
2022/04/06 01:03:58;;;;;;;4.13;3.70;;;;;;;-143.11;100.00;65634.97;5076622;28;20176;-59
2022/04/06 01:06:24;;;;;;;5.60;3.90;;;;;;;-143.11;100.00;65634.97;5076563;28;20188;-59
2022/04/06 01:08:51;;;;;;;5.13;3.63;;;;;;;-143.11;100.00;65634.97;5076698;28;20234;-60
2022/04/06 01:11:17;;;;;;;4.53;3.90;;;;;;;-143.11;100.00;65634.97;5076247;28;20185;-60
2022/04/06 01:13:42;;;;;;;4.23;3.50;;;;;;;-143.11;100.00;65634.97;5076588;28;20219;-61
2022/04/06 01:16:08;;;;;;;4.50;3.80;;;;;;;-143.11;100.00;65634.97;5076355;28;20189;-58
2022/04/06 01:18:33;;;;;;;5.30;3.87;;;;;;;-143.11;100.00;65634.97;5076286;28;20260;-65
2022/04/06 01:20:59;;;;;;;7.27;3.67;;;;;;;-143.11;100.00;65634.97;5076247;28;20183;-63
2022/04/06 01:23:24;;;;;;;5.47;3.90;;;;;;;-143.11;100.00;65634.97;5076236;28;20190;-63
2022/04/06 01:25:51;;;;;;;5.33;3.53;;;;;;;-143.11;100.00;65634.97;5076430;28;20208;-64
2022/04/06 01:28:17;;;;;;;4.40;3.73;;;;;;;-143.11;100.00;65634.97;5076046;28;20197;-64
2022/04/06 01:30:42;;;;;;;5.00;3.83;;;;;;;-143.11;100.00;65634.97;5076276;28;20177;-63
2022/04/06 01:33:08;;;;;;;5.87;4.20;;;;;;;-143.11;100.00;65634.97;5076090;28;20205;-63
2022/04/06 01:35:38;;;;;;;6.43;4.07;;;;;;;-143.11;100.00;65634.97;5075922;28;20250;-51
2022/04/06 01:38:06;;;;;;;5.03;4.20;;;;;;;-143.11;100.00;65634.97;5076205;28;20176;-50
2022/04/06 01:40:32;;;;;;;5.47;4.03;;;;;;;-143.11;100.00;65634.97;5076047;28;20208;-52
2022/04/06 01:42:57;;;;;;;4.60;3.63;;;;;;;-143.11;100.00;65634.97;5076217;28;20188;-48
2022/04/06 01:45:23;;;;;;;6.83;3.80;;;;;;;-143.11;100.00;65634.97;5075772;28;20181;-48
2022/04/06 01:47:48;;;;;;;4.40;4.00;;;;;;;-143.11;100.00;65634.97;5076026;28;20180;-55
2022/04/06 01:52:57;;;;;;;3.97;3.37;;;;;;;-143.11;100.00;65634.97;5093966;28;20259;-60
2022/04/06 01:55:23;;;;;;;4.07;3.30;;;;;;;-143.11;100.00;65634.97;5075824;28;20256;-60
2022/04/06 01:57:49;;;;;;;3.77;3.17;;;;;;;-143.11;100.00;65634.97;5076043;28;20185;-60
2022/04/06 02:00:17;;;;;;;4.60;3.40;;;;;;;-143.11;100.00;65634.97;5075824;28;20176;-60
2022/04/06 02:02:47;;;;;;;4.03;3.57;;;;;;;-143.11;100.00;65634.97;5075578;28;20318;-61
2022/04/06 02:05:13;;;;;;;3.77;3.37;;;;;;;-143.11;100.00;65634.97;5075589;28;20188;-61
2022/04/06 02:07:39;;;;;;;3.63;3.33;;;;;;;-143.11;100.00;65634.97;5075871;28;20180;-61
2022/04/06 02:10:04;;;;;;;5.67;5.10;;;;;;;-143.11;100.00;65634.97;5075619;28;20210;-61
2022/04/06 02:12:31;;;;;;;4.70;3.40;;;;;;;-143.11;100.00;65634.97;5075288;28;20215;-52
2022/04/06 02:14:57;;;;;;;4.63;3.73;;;;;;;-143.11;100.00;65634.97;5075590;28;20184;-51
2022/04/06 02:17:23;;;;;;;6.13;3.43;;;;;;;-143.11;100.00;65634.97;5075315;28;20223;-49
2022/04/06 02:19:48;;;;;;;3.93;3.50;;;;;;;-143.11;100.00;65634.97;5075308;28;20219;-50
2022/04/06 02:22:14;;;;;;;4.40;3.63;;;;;;;-143.11;100.00;65634.97;5075049;28;20255;-50
2022/04/06 02:24:39;;;;;;;4.60;3.27;;;;;;;-143.11;100.00;65634.97;5075066;28;20223;-48
2022/04/06 02:27:06;;;;;;;4.77;3.40;;;;;;;-143.11;100.00;65634.97;5075578;28;20223;-50
2022/04/06 02:29:32;;;;;;;4.30;3.57;;;;;;;-143.11;100.00;65634.97;5075145;28;20242;-51
2022/04/06 02:31:57;;;;;;;4.53;3.50;;;;;;;-143.11;100.00;65634.97;5075138;28;20192;-65
2022/04/06 02:34:22;;;;;;;4.00;3.33;;;;;;;-143.11;100.00;65634.97;5075245;28;20320;-60
2022/04/06 02:36:48;;;;;;;4.03;3.30;;;;;;;-143.11;100.00;65634.97;5074936;28;20222;-60
2022/04/06 02:39:13;;;;;;;4.57;3.50;;;;;;;-143.11;100.00;65634.97;5074941;28;20242;-60
2022/04/06 02:41:38;;;;;;;10.27;8.37;;;;;;;-143.11;100.00;65634.97;5074952;28;20195;-61
2022/04/06 02:44:05;;;;;;;4.67;4.00;;;;;;;-143.11;100.00;65634.97;5075297;28;20227;-60
2022/04/06 02:46:31;;;;;;;3.90;3.13;;;;;;;-143.11;100.00;65634.97;5092860;28;20168;-61
2022/04/06 02:48:56;;;;;;;3.60;3.07;;;;;;;-143.11;100.00;65634.97;5092982;28;20181;-62
2022/04/06 02:51:21;;;;;;;3.50;3.20;;;;;;;-143.11;100.00;65634.97;5074808;28;20187;-47
2022/04/06 02:53:46;;;;;;;3.37;3.03;;;;;;;-143.11;100.00;65634.97;5074660;28;20243;-48
2022/04/06 02:56:12;;;;;;;3.80;3.30;;;;;;;-143.11;100.00;65634.97;5074918;28;20177;-47
2022/04/06 02:58:37;;;;;;;3.40;3.07;;;;;;;-143.11;100.00;65634.97;5074878;28;20180;-47
2022/04/06 03:01:03;;;;;;;4.40;3.10;;;;;;;-143.11;100.00;65634.97;5074861;28;20189;-48
2022/04/06 03:03:28;;;;;;;3.93;3.00;;;;;;;-143.11;100.00;65634.97;5074639;28;20194;-50
2022/04/06 03:05:53;;;;;;;3.80;3.00;;;;;;;-143.11;100.00;65634.97;5074776;28;20196;-50
2022/04/06 03:08:19;;;;;;;4.50;2.97;;;;;;;-143.11;100.00;65634.97;5092079;28;20188;-64
2022/04/06 03:10:44;;;;;;;4.73;3.20;;;;;;;-143.11;100.00;65634.97;5074245;28;20184;-52
2022/04/06 03:13:10;;;;;;;4.10;3.07;;;;;;;-143.11;100.00;65634.97;5074192;28;20201;-48
2022/04/06 03:15:35;;;;;;;2.63;2.30;;;;;;;-143.11;100.00;65634.97;5074479;28;20187;-47
2022/04/06 03:18:00;;;;;;;3.23;2.50;;;;;;;-143.11;100.00;65634.97;5074711;28;20184;-50
2022/04/06 03:20:26;;;;;;;2.40;2.20;;;;;;;-143.11;100.00;65634.97;5074528;28;20204;-51
2022/04/06 03:22:51;;;;;;;3.27;2.23;;;;;;;-143.11;100.00;65634.97;5074668;28;20221;-47
2022/04/06 03:25:16;;;;;;;2.77;2.00;;;;;;;-143.11;100.00;65634.97;5074177;28;20213;-54
2022/04/06 03:27:42;;;;;;;2.60;2.20;;;;;;;-143.11;100.00;65634.97;5074505;28;20268;-53
2022/04/06 03:30:13;;;;;;;3.00;2.20;;;;;;;-143.11;100.00;65634.97;5074492;28;20194;-53
2022/04/06 03:32:39;;;;;;;3.33;2.30;;;;;;;-143.11;100.00;65634.97;5074383;28;20219;-50
2022/04/06 03:35:05;;;;;;;2.50;2.20;;;;;;;-143.11;100.00;65634.97;5073998;28;20293;-52
2022/04/06 03:37:31;;;;;;;2.70;2.30;;;;;;;-143.11;100.00;65634.97;5074357;28;20186;-54
2022/04/06 03:39:56;;;;;;;3.30;2.20;;;;;;;-143.11;100.00;65634.97;5074483;28;20205;-52
2022/04/06 03:42:21;;;;;;;3.57;2.90;;;;;;;-143.11;100.00;65634.97;5074124;28;20183;-52
2022/04/06 03:44:47;;;;;;;3.07;2.67;;;;;;;-143.11;100.00;65634.97;5074323;28;20192;-64
2022/04/06 03:47:12;;;;;;;3.00;2.60;;;;;;;-143.11;100.00;65634.97;5074147;28;20188;-51
2022/04/06 03:49:37;;;;;;;3.00;2.57;;;;;;;-143.11;100.00;65634.97;5074067;28;20193;-49
2022/04/06 03:52:03;;;;;;;4.90;2.70;;;;;;;-143.11;100.00;65634.97;5074068;28;20187;-53
2022/04/06 03:54:28;;;;;;;3.07;2.67;;;;;;;-143.11;100.00;65634.97;5073809;28;20299;-52
2022/04/06 03:56:54;;;;;;;4.77;2.60;;;;;;;-143.11;100.00;65634.97;5073775;28;20181;-49
2022/04/06 03:59:20;;;;;;;3.57;2.70;;;;;;;-143.11;100.00;65634.97;5073942;28;20188;-51
2022/04/06 04:01:45;;;;;;;4.30;3.40;;;;;;;-143.11;100.00;65634.97;5074049;28;20210;-60
2022/04/06 04:04:10;;;;;;;24.10;18.77;;;;;;;-143.11;100.00;65634.97;5074207;28;20261;-60
2022/04/06 04:06:36;;;;;;;20.30;13.90;;;;;;;-143.11;100.00;65634.97;5073743;28;20181;-60
2022/04/06 04:09:03;;;;;;;29.90;20.53;;;;;;;-143.11;100.00;65634.97;5073866;28;20192;-60
2022/04/06 04:11:28;;;;;;;4.63;2.90;;;;;;;-143.11;100.00;65634.97;5074057;28;20193;-61
2022/04/06 04:13:54;;;;;;;3.80;2.67;;;;;;;-143.11;100.00;65634.97;5073566;28;20258;-60
2022/04/06 04:16:19;;;;;;;2.30;2.10;;;;;;;-143.11;100.00;65634.97;5073685;28;20177;-60
2022/04/06 04:18:44;;;;;;;2.43;2.07;;;;;;;-143.11;100.00;65634.97;5073699;28;20172;-61
2022/04/06 04:23:53;;;;;;;2.80;2.43;;;;;;;-143.11;100.00;65634.97;5095142;28;20199;-64
2022/04/06 04:26:19;;;;;;;2.83;2.37;;;;;;;-143.11;100.00;65634.97;5077258;28;20208;-65
2022/04/06 04:28:44;;;;;;;2.60;2.27;;;;;;;-143.11;100.00;65634.97;5077267;28;20187;-64
2022/04/06 04:31:10;;;;;;;3.43;2.30;;;;;;;-143.11;100.00;65634.97;5077261;28;20190;-63
2022/04/06 04:33:35;;;;;;;2.90;2.50;;;;;;;-143.11;100.00;65634.97;5076994;28;20260;-63
2022/04/06 04:36:00;;;;;;;3.93;2.80;;;;;;;-143.11;100.00;65634.97;5076833;28;20192;-64
2022/04/06 04:38:26;;;;;;;6.53;3.00;;;;;;;-143.11;100.00;65634.97;5077090;28;20198;-62
2022/04/06 04:40:51;;;;;;;3.20;2.60;;;;;;;-143.11;100.00;65634.97;5077069;28;20189;-63
2022/04/06 04:43:17;;;;;;;2.80;2.30;;;;;;;-143.11;100.00;65634.97;5076538;28;20188;-54
2022/04/06 04:45:42;;;;;;;2.53;2.33;;;;;;;-143.11;100.00;65634.97;5076937;28;20184;-52
2022/04/06 04:48:08;;;;;;;3.10;2.50;;;;;;;-143.11;100.00;65634.97;5076755;28;20186;-51
2022/04/06 04:50:33;;;;;;;3.53;2.47;;;;;;;-143.11;100.00;65634.97;5076569;28;20183;-50
2022/04/06 04:52:58;;;;;;;3.57;2.57;;;;;;;-143.11;100.00;65634.97;5076487;28;20231;-51
2022/04/06 04:55:23;;;;;;;3.07;2.50;;;;;;;-143.11;100.00;65634.97;5076491;28;20222;-51
2022/04/06 04:57:49;;;;;;;2.40;2.20;;;;;;;-143.11;100.00;65634.97;5076365;28;20180;-53
2022/04/06 05:00:15;;;;;;;3.27;2.60;;;;;;;-143.11;100.00;65634.97;5094437;28;20263;-62
2022/04/06 05:02:40;;;;;;;4.87;2.57;;;;;;;-143.11;100.00;65634.97;5094543;28;20194;-63
2022/04/06 05:05:07;;;;;;;2.60;2.40;;;;;;;-143.11;100.00;65634.97;5076362;28;20197;-63
2022/04/06 05:07:37;;;;;;;4.83;2.77;;;;;;;-143.11;100.00;65634.97;5076339;28;20294;-62
2022/04/06 05:10:07;;;;;;;3.83;2.70;;;;;;;-143.11;100.00;65634.97;5076460;28;20185;-63
2022/04/06 05:12:32;;;;;;;2.60;2.23;;;;;;;-143.11;100.00;65634.97;5076166;28;20257;-63
2022/04/06 05:14:59;;;;;;;5.77;2.20;;;;;;;-143.11;100.00;65634.97;5076431;28;20195;-60
2022/04/06 05:17:25;;;;;;;4.87;2.50;;;;;;;-143.11;100.00;65634.97;5076655;28;20188;-51
2022/04/06 05:19:50;;;;;;;4.00;3.17;;;;;;;-143.11;100.00;65634.97;5076308;28;20231;-51
2022/04/06 05:22:15;;;;;;;4.40;3.10;;;;;;;-143.11;100.00;65634.97;5076057;28;20260;-54
2022/04/06 05:24:40;;;;;;;3.57;2.30;;;;;;;-143.11;100.00;65634.97;5076058;28;20223;-51
2022/04/06 05:27:06;;;;;;;3.13;2.53;;;;;;;-143.11;100.00;65634.97;5076330;28;20301;-56
2022/04/06 05:29:31;;;;;;;3.70;2.47;;;;;;;-143.11;100.00;65634.97;5076305;28;20192;-54
2022/04/06 05:31:56;;;;;;;2.63;2.07;;;;;;;-143.11;100.00;65634.97;5075639;28;20189;-52
2022/04/06 05:34:22;;;;;;;3.23;2.30;;;;;;;-143.11;100.00;65634.97;5076035;28;20180;-59
2022/04/06 05:36:47;;;;;;;2.70;2.40;;;;;;;-143.11;100.00;65634.97;5076067;28;20181;-60
2022/04/06 05:39:13;;;;;;;3.27;2.43;;;;;;;-143.11;100.00;65634.97;5075925;28;20217;-59
2022/04/06 05:41:38;;;;;;;2.90;2.37;;;;;;;-143.11;100.00;65634.97;5075840;28;20184;-59
2022/04/06 05:44:04;;;;;;;3.07;2.10;;;;;;;-143.11;100.00;65634.97;5076131;28;20210;-60
2022/04/06 05:46:29;;;;;;;4.03;2.40;;;;;;;-143.11;100.00;65634.97;5075500;28;20204;-60
2022/04/06 05:48:55;;;;;;;4.07;1.93;;;;;;;-143.11;100.00;65634.97;5075768;28;20226;-60
2022/04/06 05:51:21;;;;;;;2.83;2.37;;;;;;;-143.11;100.00;65634.97;5075824;28;20277;-50
2022/04/06 05:53:47;;;;;;;3.50;2.60;;;;;;;-143.11;100.00;65634.97;5075523;28;20211;-46
2022/04/06 05:56:12;;;;;;;3.90;3.00;;;;;;;-143.11;100.00;65634.97;5075650;28;20231;-61
2022/04/06 05:58:38;;;;;;;3.47;2.53;;;;;;;-143.11;100.00;65634.97;5075741;28;20253;-60
2022/04/06 06:01:03;;;;;;;3.73;3.07;;;;;;;-143.11;100.00;65634.97;5075637;28;20198;-61
2022/04/06 06:03:29;;;;;;;3.10;2.80;;;;;;;-143.11;100.00;65634.97;5075584;28;20227;-60
2022/04/06 06:05:54;;;;;;;4.30;3.17;;;;;;;-143.11;100.00;65634.97;5075526;28;20186;-60
2022/04/06 06:08:20;;;;;;;4.40;3.40;;;;;;;-143.11;100.00;65634.97;5093890;28;20191;-61
2022/04/06 06:10:46;;;;;;;6.70;4.07;;;;;;;-143.11;100.00;65634.97;5075314;28;20208;-51
2022/04/06 06:13:11;;;;;;;2.87;2.50;;;;;;;-143.11;100.00;65634.97;5075414;28;20206;-51
2022/04/06 06:15:36;;;;;;;3.10;2.80;;;;;;;-143.11;100.00;65634.97;5075340;28;20185;-51
2022/04/06 06:18:02;;;;;;;3.30;2.60;;;;;;;-143.11;100.00;65634.97;5075355;28;20216;-52
2022/04/06 06:20:27;;;;;;;3.30;2.20;;;;;;;-143.11;100.00;65634.97;5074816;28;20174;-53
2022/04/06 06:22:53;;;;;;;3.40;3.10;;;;;;;-143.11;100.00;65634.97;5075480;28;20292;-53
2022/04/06 06:25:18;;;;;;;2.80;2.00;;;;;;;-143.11;100.00;65634.97;5075012;28;20207;-51
2022/04/06 06:27:46;;;;;;;3.30;2.30;;;;;;;-143.11;100.00;65634.97;5075396;28;20203;-51
2022/04/06 06:30:13;;;;;;;3.53;2.10;;;;;;;-143.11;100.00;65634.97;5075222;28;20192;-60
2022/04/06 06:32:39;;;;;;;2.20;2.00;;;;;;;-143.11;100.00;65634.97;5074990;28;20309;-60
2022/04/06 06:35:05;;;;;;;3.60;3.03;;;;;;;-143.11;100.00;65634.97;5075055;28;20188;-60
2022/04/06 06:37:31;;;;;;;2.47;2.10;;;;;;;-143.11;100.00;65634.97;5075034;28;20185;-59
2022/04/06 06:39:56;;;;;;;4.23;3.60;;;;;;;-143.11;100.00;65634.97;5074732;28;20271;-60
2022/04/06 06:42:21;;;;;;;2.13;1.93;;;;;;;-143.11;100.00;65634.97;5073712;28;20187;-59
2022/04/06 06:44:47;;;;;;;2.70;2.27;;;;;;;-143.11;100.00;65634.97;5074519;28;20191;-59
2022/04/06 06:47:12;;;;;;;2.07;1.87;;;;;;;-143.11;100.00;65634.97;5074937;28;20208;-51
2022/04/06 06:49:45;;;;;;;2.17;1.73;;;;;;;-143.11;100.00;65634.97;5074566;28;20189;-61
2022/04/06 06:52:11;;;;;;;2.87;2.40;;;;;;;-143.11;100.00;65634.97;5074666;28;20173;-59
2022/04/06 06:54:37;;;;;;;2.80;1.90;;;;;;;-143.11;100.00;65634.97;5074320;28;20234;-60
2022/04/06 06:57:02;;;;;;;2.97;2.67;;;;;;;-143.11;100.00;65634.97;5074706;28;20176;-60
2022/04/06 06:59:28;;;;;;;3.37;1.70;;;;;;;-143.11;100.00;65634.97;5074899;28;20215;-60
2022/04/06 07:01:53;;;;;;;3.63;2.77;;;;;;;-143.11;100.00;65634.97;5074896;28;20176;-58
2022/04/06 07:04:22;;;;;;;2.20;2.00;;;;;;;-143.11;100.00;65634.97;5074663;28;20189;-60
2022/04/06 07:06:47;;;;;;;2.47;1.83;;;;;;;-143.11;100.00;65634.97;5074864;28;20177;-61
2022/04/06 07:09:12;;;;;;;1.70;1.60;;;;;;;-143.11;100.00;65634.97;5074667;28;20180;-50
2022/04/06 07:11:38;;;;;;;2.50;1.97;;;;;;;-143.11;100.00;65634.97;5074384;28;20183;-50
2022/04/06 07:14:03;;;;;;;3.83;2.00;;;;;;;-143.11;100.00;65634.97;5074308;28;20355;-51
2022/04/06 07:16:29;;;;;;;2.40;2.00;;;;;;;-143.11;100.00;65634.97;5074300;28;20176;-50
2022/04/06 07:18:54;;;;;;;4.90;2.43;;;;;;;-143.11;100.00;65634.97;5074569;28;20255;-50
2022/04/06 07:21:20;;;;;;;4.37;2.27;;;;;;;-143.11;100.00;65634.97;5074435;28;20176;-53
2022/04/06 07:23:45;;;;;;;2.93;2.50;;;;;;;-143.11;100.00;65634.97;5074487;28;20267;-49
2022/04/06 07:26:13;;;;;;;4.30;2.33;;;;;;;-143.11;100.00;65634.97;5074237;28;20204;-60
2022/04/06 07:28:39;;;;;;;3.47;2.30;;;;;;;-143.11;100.00;65634.97;5073965;28;20267;-59
2022/04/06 07:31:04;;;;;;;3.90;2.73;;;;;;;-143.11;100.00;65634.97;5074261;28;20267;-59
2022/04/06 07:33:30;;;;;;;3.20;2.60;;;;;;;-143.11;100.00;65634.97;5074087;28;20295;-60
2022/04/06 07:35:55;;;;;;;5.47;3.73;;;;;;;-143.11;100.00;65634.97;5074341;28;20218;-60
2022/04/06 07:38:20;;;;;;;3.17;2.73;;;;;;;-143.11;100.00;65634.97;5074216;28;20206;-60
2022/04/06 07:40:46;;;;;;;4.30;3.90;;;;;;;-143.11;100.00;65634.97;5074013;28;20194;-60
2022/04/06 07:43:12;;;;;;;3.30;2.27;;;;;;;-143.11;100.00;65634.97;5074022;28;20206;-60
2022/04/06 07:45:37;;;;;;;3.43;3.13;;;;;;;-143.11;100.00;65634.97;5073976;28;20192;-53
2022/04/06 07:48:06;;;;;;;5.47;3.97;;;;;;;-143.11;100.00;65634.97;5074121;28;20233;-49
2022/04/06 07:50:31;;;;;;;3.53;3.22;;;;;;;-143.11;100.00;65634.97;5073715;28;20184;-54
2022/04/06 07:52:57;;;;;;;4.55;4.15;;;;;;;-143.11;100.00;65634.97;5073763;28;20213;-54
2022/04/06 07:55:22;;;;;;;3.38;3.03;;;;;;;-143.11;100.00;65634.97;5076944;28;20185;-52
2022/04/06 07:57:47;;;;;;;5.82;3.67;;;;;;;-143.11;100.00;65634.97;5077638;28;20184;-52
2022/04/06 08:00:16;;;;;;;4.72;3.30;;;;;;;-143.11;100.00;65634.97;5077257;28;20191;-58
2022/04/06 08:02:46;;;;;;;4.38;4.05;;;;;;;-143.11;100.00;65634.97;5077219;28;20172;-54
2022/04/06 08:05:12;;;;;;;3.80;3.40;;;;;;;-143.11;100.00;65634.97;5094978;28;20188;-49
2022/04/06 08:07:39;;;;;;;4.32;3.20;;;;;;;-143.11;100.00;65634.97;5077277;28;20187;-50
2022/04/06 08:10:09;;;;;;;3.58;3.13;;;;;;;-143.11;100.00;65634.97;5077663;28;20181;-53
2022/04/06 08:12:35;;;;;;;3.50;3.20;;;;;;;-143.11;100.00;65634.97;5077282;28;20200;-50
2022/04/06 08:15:01;;;;;;;3.70;3.40;;;;;;;-143.11;100.00;65634.97;5077076;28;20271;-49
2022/04/06 08:17:30;;;;;;;4.97;3.83;;;;;;;-143.11;100.00;65634.97;5077065;28;20173;-49
2022/04/06 08:19:55;;;;;;;4.18;3.80;;;;;;;-143.11;100.00;65634.97;5077095;28;20188;-48
2022/04/06 08:22:20;;;;;;;4.35;3.90;;;;;;;-143.11;100.00;65634.97;5077423;28;20276;-62
2022/04/06 08:24:46;;;;;;;5.00;3.72;;;;;;;-143.11;100.00;65634.97;5077086;28;20208;-61
2022/04/06 08:27:11;;;;;;;4.45;3.70;;;;;;;-143.11;100.00;65634.97;5077170;28;20192;-61
2022/04/06 08:29:37;;;;;;;3.58;3.28;;;;;;;-143.11;100.00;65634.97;5076971;28;20186;-61
2022/04/06 08:32:02;;;;;;;4.93;3.20;;;;;;;-143.11;100.00;65634.97;5077475;28;20226;-61
2022/04/06 08:34:27;;;;;;;3.47;3.17;;;;;;;-143.11;100.00;65634.97;5076967;28;20180;-61
2022/04/06 08:36:53;;;;;;;4.95;3.80;;;;;;;-143.11;100.00;65634.97;5077327;28;20188;-62
2022/04/06 08:39:18;;;;;;;4.25;3.88;;;;;;;-143.11;100.00;65634.97;5076776;28;20184;-60
2022/04/06 08:41:44;;;;;;;4.72;3.85;;;;;;;-143.11;100.00;65634.97;5076923;28;20275;-52
2022/04/06 08:44:09;;;;;;;4.32;3.60;;;;;;;-143.11;100.00;65634.97;5076444;28;20209;-52
2022/04/06 08:46:36;;;;;;;3.88;3.47;;;;;;;-143.11;100.00;65634.97;5076839;28;20176;-52
2022/04/06 08:49:02;;;;;;;4.28;3.80;;;;;;;-143.11;100.00;65634.97;5076775;28;20204;-50
2022/04/06 08:51:29;;;;;;;4.50;3.92;;;;;;;-143.11;100.00;65634.97;5076622;28;20180;-50
2022/04/06 08:53:54;;;;;;;4.95;3.50;;;;;;;-143.11;100.00;65634.97;5076731;28;20172;-50
2022/04/06 08:56:22;;;;;;;4.75;4.22;;;;;;;-143.11;100.00;65634.97;5076765;28;20229;-49
2022/04/06 08:58:47;;;;;;;4.70;4.30;;;;;;;-143.11;100.00;65634.97;5076703;28;20229;-52
2022/04/06 09:01:13;;;;;;;5.40;4.20;;;;;;;-143.11;100.00;65634.97;5076531;28;20176;-51
2022/04/06 09:03:38;;;;;;;4.30;3.85;;;;;;;-143.11;100.00;65634.97;5076661;28;20215;-50
2022/04/06 09:06:08;;;;;;;5.57;3.85;;;;;;;-143.11;100.00;65634.97;5075712;28;20180;-49
2022/04/06 09:08:46;;;;;;;5.13;3.70;;;;;;;-143.11;100.00;65634.97;5076545;28;20216;-51
2022/04/06 09:11:17;;;;;;;4.43;3.75;;;;;;;-143.11;100.00;65634.97;5076200;28;20211;-52
2022/04/06 09:13:46;;;;;;;5.60;4.32;;;;;;;-143.11;100.00;65634.97;5076043;28;20192;-54
2022/04/06 09:16:13;;;;;;;7.63;6.40;;;;;;;-143.11;100.00;65634.97;5076352;28;20185;-55
2022/04/06 09:18:44;;;;;;;5.38;4.88;;;;;;;-143.11;100.00;65634.97;5076096;28;20232;-63
2022/04/06 09:21:11;;;;;;;6.65;4.35;;;;;;;-143.11;100.00;65634.97;5076544;28;20183;-62
2022/04/06 09:23:37;;;;;;;5.18;3.72;;;;;;;-143.11;100.00;65634.97;5076465;28;20215;-63
2022/04/06 09:26:07;;;;;;;4.93;3.75;;;;;;;-143.11;100.00;65634.97;5076400;28;20197;-63
2022/04/06 09:28:32;;;;;;;9.90;6.78;;;;;;;-143.11;100.00;65634.97;5094087;28;20259;-63
2022/04/06 09:30:58;;;;;;;4.63;4.22;;;;;;;-143.11;100.00;65634.97;5076091;28;20272;-62
2022/04/06 09:33:28;;;;;;;5.43;4.93;;;;;;;-143.11;100.00;65634.97;5076206;28;20192;-60
2022/04/06 09:35:55;;;;;;;4.32;4.00;;;;;;;-143.11;100.00;65634.97;5075975;28;20176;-61
2022/04/06 09:38:26;;;;;;;4.47;3.90;;;;;;;-143.11;100.00;65634.97;5076018;28;20238;-61
2022/04/06 09:41:11;;;;;;;4.63;4.13;;;;;;;-143.11;100.00;65634.97;5076277;28;20240;-62
2022/04/06 09:43:37;;;;;;;4.05;3.67;;;;;;;-143.11;100.00;65634.97;5075785;28;20211;-62
2022/04/06 09:49:06;;;;;;;4.18;3.67;;;;;;;-143.11;100.00;65634.97;5093883;28;20195;-61
2022/04/06 09:51:32;;;;;;;6.03;4.50;;;;;;;-143.11;100.00;65634.97;5075897;28;20260;-60
2022/04/06 09:54:01;;;;;;;4.43;4.03;;;;;;;-143.11;100.00;65634.97;5075966;28;20271;-62
2022/04/06 09:56:27;;;;;;;3.90;3.60;;;;;;;-143.11;100.00;65634.97;5075657;28;20185;-62
2022/04/06 09:58:56;;;;;;;4.30;3.90;;;;;;;-143.11;100.00;65634.97;5075608;28;20261;-62
2022/04/06 10:01:22;;;;;;;6.10;3.80;;;;;;;-143.11;100.00;65634.97;5075371;28;20180;-61
2022/04/06 10:03:54;;;;;;;3.75;3.45;;;;;;;-143.11;100.00;65634.97;5075495;28;20291;-60
2022/04/06 10:06:21;;;;;;;3.60;3.30;;;;;;;-143.11;100.00;65634.97;5075728;28;20184;-62
2022/04/06 10:08:47;;;;;;;3.33;2.92;;;;;;;-143.11;100.00;65634.97;5075436;28;20211;-61
2022/04/06 10:11:13;;;;;;;3.60;2.83;;;;;;;-143.11;100.00;65634.97;5075465;28;20199;-59
2022/04/06 10:13:40;;;;;;;3.08;2.75;;;;;;;-143.11;100.00;65634.97;5075242;28;20176;-62
2022/04/06 10:16:10;;;;;;;3.20;2.90;;;;;;;-143.11;100.00;65634.97;5075619;28;20185;-62
2022/04/06 10:18:37;;;;;;;4.20;2.90;;;;;;;-143.11;100.00;65634.97;5074073;28;20181;-61
2022/04/06 10:21:19;;;;;;;3.35;2.75;;;;;;;-143.11;100.00;65634.97;5093262;28;20261;-62
2022/04/06 10:24:24;;;;;;;3.20;2.72;;;;;;;-143.11;100.00;65634.97;5075344;28;20208;-62
2022/04/06 10:26:57;;;;;;;5.15;2.90;;;;;;;-143.11;100.00;65634.97;5025101;28;20203;-62
2022/04/06 10:29:23;;;;;;;3.22;2.72;;;;;;;-143.11;100.00;65634.97;5075046;28;20248;-51
2022/04/06 10:31:48;;;;;;;5.28;3.80;;;;;;;-143.11;100.00;65634.97;5074726;28;20237;-61
2022/04/06 10:34:22;;;;;;;4.18;3.30;;;;;;;-143.11;100.00;65634.97;5075132;28;20183;-61
2022/04/06 10:37:13;;;;;;;3.45;3.03;;;;;;;-143.11;100.00;65634.97;5075150;28;20191;-62
2022/04/06 10:39:59;;;;;;;4.75;3.40;;;;;;;-143.11;100.00;65634.97;5074860;28;20180;-60
2022/04/06 10:42:27;;;;;;;5.00;3.17;;;;;;;-143.11;100.00;65634.97;5074905;28;20204;-61
2022/04/06 10:44:52;;;;;;;3.45;3.15;;;;;;;-143.11;100.00;65634.97;5074973;28;20219;-61
2022/04/06 10:47:18;;;;;;;4.05;3.70;;;;;;;-143.11;100.00;65634.97;5075238;28;20208;-50
2022/04/06 10:50:13;;;;;;;3.60;2.80;;;;;;;-143.11;100.00;65634.97;5074894;28;20184;-48
2022/04/06 10:52:39;;;;;;;8.83;2.50;;;;;;;-143.11;100.00;65634.97;5074567;28;20195;-45
2022/04/06 10:55:20;;;;;;;3.23;2.93;;;;;;;-143.11;100.00;65634.97;5092872;28;20172;-48
2022/04/06 10:57:55;;;;;;;4.30;3.90;;;;;;;-143.11;100.00;65634.97;5074737;28;20200;-48
2022/04/06 11:00:21;;;;;;;3.50;3.13;;;;;;;-143.11;100.00;65634.97;5074892;28;20205;-48
2022/04/06 11:02:50;;;;;;;3.57;3.27;;;;;;;-143.11;100.00;65634.97;5074634;28;20204;-47
2022/04/06 11:05:40;;;;;;;5.30;3.50;;;;;;;-143.11;100.00;65634.97;5074756;28;20219;-59
2022/04/06 11:10:50;;;;;;;2.80;2.40;;;;;;;-143.11;100.00;65634.97;5092886;28;20261;-57
2022/04/06 11:13:17;;;;;;;3.88;2.90;;;;;;;-143.11;100.00;65634.97;5074684;28;20207;-57
2022/04/06 11:15:51;;;;;;;3.05;2.60;;;;;;;-143.11;100.00;65634.97;5075036;28;20206;-58
2022/04/06 11:18:47;;;;;;;3.83;2.33;;;;;;;-143.11;100.00;65634.97;5074451;28;20190;-59